Time;durP1;ratioP1;P1;durP2;ratioP2;P2;SDS_P1;SDS_P2;PMS_P1;PMS_P2;Temp;Humidity;BMP_temperature;BMP_pressure;BME280_temperature;BME280_humidity;BME280_pressure;Samples;Min_cycle;Max_cycle;Signal;HPM_P1;HPM_P2
2022/07/19 00:00:02;;;;;;;885.30;830.17;;;;;;;21.48;56.49;100238.28;316868;31;2892;-79
2022/07/19 00:00:15;;;;;;;887.05;831.95;;;;;;;21.52;56.47;100240.63;315726;30;2379;-79
2022/07/19 00:00:25;;;;;;;875.03;820.25;;;;;;;21.56;56.27;100236.75;318565;31;941;-79
2022/07/19 00:00:36;;;;;;;874.10;818.97;;;;;;;21.62;56.05;100234.59;316093;31;1324;-79
2022/07/19 00:00:46;;;;;;;873.47;818.17;;;;;;;21.65;56.15;100235.19;313220;31;2413;-79
2022/07/19 00:00:57;;;;;;;872.90;817.57;;;;;;;21.71;56.13;100245.34;309791;31;2942;-79
2022/07/19 00:01:07;;;;;;;872.53;817.60;;;;;;;21.74;55.76;100241.59;305380;32;1193;-79
2022/07/19 00:01:18;;;;;;;868.67;814.00;;;;;;;21.77;55.95;100244.88;310861;31;4546;-80
2022/07/19 00:01:28;;;;;;;873.80;819.05;;;;;;;21.78;55.76;100245.75;310341;31;4953;-81
2022/07/19 00:01:39;;;;;;;877.57;822.70;;;;;;;21.77;55.86;100244.03;308648;32;848;-80
2022/07/19 00:01:49;;;;;;;879.25;824.42;;;;;;;21.77;55.96;100244.03;303297;32;3863;-79
2022/07/19 00:02:00;;;;;;;884.03;829.00;;;;;;;21.76;55.65;100237.00;302906;32;4021;-79
2022/07/19 00:02:10;;;;;;;884.50;829.37;;;;;;;21.77;55.79;100244.88;304273;32;1301;-79
2022/07/19 00:02:20;;;;;;;881.60;826.60;;;;;;;21.77;56.18;100238.72;302500;32;3778;-79
2022/07/19 00:02:31;;;;;;;869.45;814.95;;;;;;;21.80;55.77;100243.81;302446;32;3192;-79
2022/07/19 00:02:41;;;;;;;862.07;807.90;;;;;;;21.81;55.88;100234.84;296681;33;3188;-79
2022/07/19 00:02:52;;;;;;;861.17;806.95;;;;;;;21.80;55.65;100243.81;294070;33;1366;-80
2022/07/19 00:03:02;;;;;;;868.50;813.85;;;;;;;21.80;55.62;100243.81;293046;33;3557;-79
2022/07/19 00:03:14;;;;;;;877.13;822.10;;;;;;;21.81;55.76;100246.34;294072;33;4128;-79
2022/07/19 00:03:24;;;;;;;885.35;829.95;;;;;;;21.79;55.75;100242.97;294911;33;1350;-81
2022/07/19 00:03:34;;;;;;;884.33;829.03;;;;;;;21.75;55.81;100235.31;288307;33;6302;-81
2022/07/19 00:03:45;;;;;;;882.37;827.33;;;;;;;21.70;55.49;100240.16;286169;34;7062;-81
2022/07/19 00:03:58;;;;;;;879.03;824.28;;;;;;;21.68;55.68;100239.41;285818;34;1330;-81
2022/07/19 00:04:09;;;;;;;880.95;826.05;;;;;;;21.67;55.89;100232.38;286058;34;1633;-81
2022/07/19 00:04:19;;;;;;;873.93;819.20;;;;;;;21.71;55.86;100240.03;285276;34;6267;-80
2022/07/19 00:04:30;;;;;;;874.97;820.05;;;;;;;21.72;55.87;100235.53;286552;34;5560;-80
2022/07/19 00:04:41;;;;;;;875.17;820.40;;;;;;;21.73;55.81;100245.25;285683;34;1308;-80
2022/07/19 00:04:51;;;;;;;879.03;824.13;;;;;;;21.71;55.83;100239.19;279827;35;1240;-80
2022/07/19 00:05:02;;;;;;;881.15;826.20;;;;;;;21.71;55.75;100239.19;281078;34;9487;-80
2022/07/19 00:05:13;;;;;;;884.72;829.60;;;;;;;21.73;55.79;100237.25;278772;35;5887;-80
2022/07/19 00:05:23;;;;;;;879.92;824.97;;;;;;;21.80;55.88;100246.47;277044;35;886;-80
2022/07/19 00:07:16;;;;;;;787.01;735.24;;;;;;;21.62;56.06;100240.75;2503709;27;20271;-80
2022/07/19 00:07:26;;;;;;;859.80;805.90;;;;;;;21.62;56.10;100239.91;353035;28;1210;-80
2022/07/19 00:07:37;;;;;;;856.15;802.20;;;;;;;21.63;56.11;100241.63;350453;28;1128;-80
2022/07/19 00:07:47;;;;;;;863.33;808.97;;;;;;;21.65;56.06;100239.69;350547;28;1215;-80
2022/07/19 00:07:57;;;;;;;865.13;810.67;;;;;;;21.64;56.02;100237.97;347471;28;1579;-80
2022/07/19 00:08:08;;;;;;;864.03;809.60;;;;;;;21.64;56.01;100230.00;347865;28;1249;-79
2022/07/19 00:08:18;;;;;;;861.00;806.67;;;;;;;21.65;56.11;100247.66;346539;28;3706;-79
2022/07/19 00:08:29;;;;;;;864.73;810.23;;;;;;;21.64;56.10;100235.31;347106;28;3252;-79
2022/07/19 00:08:39;;;;;;;864.20;809.60;;;;;;;21.65;55.99;100237.88;348843;28;1220;-80
2022/07/19 00:08:50;;;;;;;868.23;813.57;;;;;;;21.65;55.77;100229.88;348880;28;1185;-80
2022/07/19 00:09:00;;;;;;;869.80;815.15;;;;;;;21.62;55.92;100235.44;347746;28;1289;-80
2022/07/19 00:09:11;;;;;;;875.33;820.50;;;;;;;21.61;56.10;100235.56;350704;28;1625;-80
2022/07/19 00:09:22;;;;;;;877.37;822.23;;;;;;;21.64;56.07;100237.97;349880;28;843;-80
2022/07/19 00:09:32;;;;;;;872.58;817.70;;;;;;;21.66;55.85;100236.06;346963;28;1512;-80
2022/07/19 00:09:43;;;;;;;869.27;814.33;;;;;;;21.65;55.81;100237.00;346407;28;1257;-80
2022/07/19 00:09:53;;;;;;;871.87;816.70;;;;;;;21.64;55.72;100237.97;346652;28;1292;-80
2022/07/19 00:10:04;;;;;;;870.38;815.53;;;;;;;21.67;56.08;100235.91;347483;28;1534;-80
2022/07/19 00:10:16;;;;;;;868.58;814.15;;;;;;;21.73;55.96;100238.09;347652;28;1256;-80
2022/07/19 00:10:26;;;;;;;862.75;808.67;;;;;;;21.75;55.75;100240.66;346749;28;1375;-80
2022/07/19 00:10:36;;;;;;;864.70;810.47;;;;;;;21.79;55.63;100242.09;344739;28;1315;-80
2022/07/19 00:10:47;;;;;;;871.13;816.63;;;;;;;21.82;55.80;100239.19;345036;28;1310;-80
2022/07/19 00:10:57;;;;;;;874.30;819.67;;;;;;;21.83;55.45;100243.56;346255;28;1295;-80
2022/07/19 00:11:08;;;;;;;871.27;816.83;;;;;;;21.84;55.49;100238.13;345170;28;1130;-80
2022/07/19 00:11:18;;;;;;;872.28;817.88;;;;;;;21.89;55.16;100248.44;344841;28;1219;-80
2022/07/19 00:11:29;;;;;;;868.90;814.50;;;;;;;21.91;55.28;100251.81;343524;28;1249;-80
2022/07/19 00:11:39;;;;;;;872.70;817.97;;;;;;;21.96;55.09;100246.97;344633;28;1282;-80
2022/07/19 00:11:49;;;;;;;865.10;810.63;;;;;;;21.99;55.05;100243.22;344860;28;1390;-80
2022/07/19 00:12:00;;;;;;;869.90;815.50;;;;;;;21.98;55.00;100247.72;348977;28;1208;-80
2022/07/19 00:12:13;;;;;;;863.37;809.17;;;;;;;21.96;54.75;100239.00;346307;28;1320;-80
2022/07/19 00:12:24;;;;;;;865.42;811.17;;;;;;;21.86;55.68;100243.34;347598;28;5633;-80
2022/07/19 00:12:34;;;;;;;860.90;806.78;;;;;;;21.77;55.34;100233.38;346316;28;1294;-80
2022/07/19 00:12:45;;;;;;;867.90;813.60;;;;;;;21.74;55.49;100238.94;346071;28;1271;-80
2022/07/19 00:12:55;;;;;;;868.80;814.30;;;;;;;21.71;55.65;100245.34;344199;28;1238;-80
2022/07/19 00:13:05;;;;;;;872.40;817.67;;;;;;;21.64;55.69;100238.84;345366;28;1239;-79
2022/07/19 00:13:16;;;;;;;869.42;814.78;;;;;;;21.62;56.14;100239.91;342385;28;972;-79
2022/07/19 00:13:26;;;;;;;868.63;813.90;;;;;;;21.61;55.86;100243.53;344605;28;875;-79
2022/07/19 00:13:37;;;;;;;869.03;814.25;;;;;;;21.60;55.96;100244.50;344232;28;1785;-80
2022/07/19 00:13:47;;;;;;;875.93;820.93;;;;;;;21.60;55.93;100236.53;341609;28;1747;-80
2022/07/19 00:13:58;;;;;;;877.90;822.80;;;;;;;21.63;56.13;100236.28;342171;28;1700;-80
2022/07/19 00:14:08;;;;;;;880.67;825.40;;;;;;;21.68;55.28;100240.25;340716;28;1571;-80
2022/07/19 00:14:19;;;;;;;878.90;823.85;;;;;;;21.68;55.23;100239.41;340404;28;1230;-80
2022/07/19 00:14:29;;;;;;;881.10;826.00;;;;;;;21.69;55.65;100241.13;340124;29;1194;-81
2022/07/19 00:14:40;;;;;;;877.13;822.42;;;;;;;21.67;55.78;100237.72;337933;29;1541;-80
2022/07/19 00:14:50;;;;;;;875.63;820.97;;;;;;;21.60;55.86;100237.38;338774;29;1374;-80
2022/07/19 00:15:01;;;;;;;871.80;817.33;;;;;;;21.57;55.68;100238.44;336076;29;1367;-80
2022/07/19 00:15:12;;;;;;;871.67;816.97;;;;;;;21.60;55.77;100237.38;337565;29;1292;-80
2022/07/19 00:15:26;;;;;;;872.88;818.10;;;;;;;21.66;55.63;100241.38;340002;28;1531;-80
2022/07/19 00:15:36;;;;;;;881.40;826.45;;;;;;;21.68;55.57;100244.75;336901;29;1356;-80
2022/07/19 00:15:47;;;;;;;884.50;829.37;;;;;;;21.63;55.48;100237.13;332620;29;1755;-78
2022/07/19 00:15:57;;;;;;;883.92;828.80;;;;;;;21.56;55.76;100236.75;337789;29;1501;-80
2022/07/19 00:16:08;;;;;;;876.60;821.80;;;;;;;21.53;55.69;100239.66;334727;29;1345;-80
2022/07/19 00:16:18;;;;;;;873.00;818.33;;;;;;;21.50;55.86;100241.69;334867;29;1524;-80
2022/07/19 00:16:29;;;;;;;872.33;817.57;;;;;;;21.51;55.96;100238.91;339094;29;1312;-80
2022/07/19 00:16:39;;;;;;;875.85;820.90;;;;;;;21.51;55.82;100244.25;337931;29;953;-80
2022/07/19 00:16:49;;;;;;;883.80;828.63;;;;;;;21.52;55.94;100245.09;337341;29;1341;-80
2022/07/19 00:17:00;;;;;;;884.63;829.40;;;;;;;21.53;55.83;100242.31;334853;29;1317;-80
2022/07/19 00:17:10;;;;;;;883.57;828.30;;;;;;;21.54;55.62;100241.34;331837;29;1439;-80
2022/07/19 00:17:21;;;;;;;876.83;821.83;;;;;;;21.58;55.68;100240.16;331650;29;1820;-80
2022/07/19 00:17:31;;;;;;;879.57;824.37;;;;;;;21.54;55.55;100240.50;329059;29;3337;-80
2022/07/19 00:17:43;;;;;;;878.73;823.70;;;;;;;21.53;55.51;100247.63;326465;30;2987;-80
2022/07/19 00:17:54;;;;;;;884.38;829.38;;;;;;;21.54;55.64;100237.84;326464;30;2143;-80
2022/07/19 00:18:04;;;;;;;882.57;827.83;;;;;;;21.53;55.41;100236.13;322799;30;1238;-80
2022/07/19 00:18:15;;;;;;;879.97;825.30;;;;;;;21.50;55.42;100241.69;321507;30;2210;-80
2022/07/19 00:18:25;;;;;;;875.63;821.05;;;;;;;21.51;55.77;100238.91;322333;30;1475;-80
2022/07/19 00:18:35;;;;;;;874.60;820.00;;;;;;;21.48;55.92;100239.16;325036;30;1199;-80
2022/07/19 00:18:46;;;;;;;879.97;825.13;;;;;;;21.39;56.13;100242.50;325373;30;1337;-80
2022/07/19 00:18:56;;;;;;;883.07;828.17;;;;;;;21.40;55.83;100244.19;324962;30;1121;-80
2022/07/19 00:19:07;;;;;;;885.28;830.30;;;;;;;21.42;56.06;100244.94;324257;30;1823;-80
2022/07/19 00:19:17;;;;;;;883.07;828.07;;;;;;;21.44;55.92;100243.00;323789;30;1203;-80
2022/07/19 00:19:28;;;;;;;880.22;825.38;;;;;;;21.49;55.79;100246.16;328529;29;2264;-80
2022/07/19 00:19:38;;;;;;;878.10;823.27;;;;;;;21.45;56.27;100238.53;327685;29;2305;-81
2022/07/19 00:19:49;;;;;;;878.15;823.53;;;;;;;21.49;56.06;100240.84;330342;29;1274;-80
2022/07/19 00:19:59;;;;;;;877.97;823.30;;;;;;;21.54;55.99;100244.00;326566;30;2491;-80
2022/07/19 00:20:11;;;;;;;883.38;828.42;;;;;;;21.60;55.77;100241.84;324168;30;2414;-80
2022/07/19 00:20:21;;;;;;;896.40;841.05;;;;;;;21.63;55.39;100238.94;321575;30;2644;-80
2022/07/19 00:20:31;;;;;;;893.28;838.03;;;;;;;21.62;55.52;100237.25;323024;30;1268;-80
2022/07/19 00:20:42;;;;;;;894.33;839.03;;;;;;;21.58;55.40;100241.97;324464;30;1609;-80
2022/07/19 00:20:52;;;;;;;881.60;826.53;;;;;;;21.53;55.38;100239.66;319537;30;1219;-79
2022/07/19 00:21:03;;;;;;;886.35;831.15;;;;;;;21.55;55.40;100244.84;317401;31;1454;-79
2022/07/19 00:21:14;;;;;;;885.43;830.30;;;;;;;21.56;55.76;100241.22;323092;30;2131;-79
2022/07/19 00:21:24;;;;;;;888.85;833.70;;;;;;;21.57;55.57;100237.59;322986;30;2851;-79
2022/07/19 00:21:35;;;;;;;881.27;826.13;;;;;;;21.58;55.49;100240.16;318489;30;3122;-79
2022/07/19 00:21:45;;;;;;;881.92;826.78;;;;;;;21.57;55.51;100240.25;312535;31;1368;-79
2022/07/19 00:21:55;;;;;;;881.10;826.00;;;;;;;21.56;55.41;100228.75;313724;31;2915;-81
2022/07/19 00:22:06;;;;;;;881.20;826.20;;;;;;;21.51;55.90;100233.59;314520;31;3834;-81
2022/07/19 00:22:16;;;;;;;878.13;823.17;;;;;;;21.47;55.59;100237.44;310968;31;1239;-80
2022/07/19 00:22:27;;;;;;;879.70;824.63;;;;;;;21.45;55.84;100238.53;311239;31;3425;-81
2022/07/19 00:22:37;;;;;;;879.42;824.25;;;;;;;21.46;55.83;100232.25;310782;31;3015;-80
2022/07/19 00:22:48;;;;;;;878.97;823.73;;;;;;;21.44;56.35;100237.69;311395;31;1186;-80
2022/07/19 00:22:58;;;;;;;878.45;823.28;;;;;;;21.40;56.18;100240.69;312999;31;2332;-80
2022/07/19 00:23:09;;;;;;;883.00;827.80;;;;;;;21.34;56.25;100244.66;309936;31;1850;-80
2022/07/19 00:23:19;;;;;;;881.50;826.47;;;;;;;21.31;56.00;100244.88;309966;31;1352;-80
2022/07/19 00:23:30;;;;;;;878.93;824.10;;;;;;;21.24;56.65;100238.31;309611;31;3476;-80
2022/07/19 00:23:40;;;;;;;881.13;826.22;;;;;;;21.20;56.80;100240.38;308561;31;4152;-80
2022/07/19 00:23:51;;;;;;;881.43;826.43;;;;;;;21.15;56.86;100241.66;305275;32;4575;-79
2022/07/19 00:24:01;;;;;;;883.45;828.25;;;;;;;21.14;56.99;100234.66;303686;32;955;-79
2022/07/19 00:24:11;;;;;;;883.97;828.77;;;;;;;21.16;57.12;100235.38;299101;32;4595;-80
2022/07/19 00:24:22;;;;;;;893.08;837.42;;;;;;;21.13;56.82;100238.28;298758;32;4954;-80
2022/07/19 00:24:32;;;;;;;896.60;840.83;;;;;;;21.12;56.75;100237.41;301100;32;1254;-81
2022/07/19 00:24:43;;;;;;;893.17;837.53;;;;;;;21.10;56.75;100227.84;300801;32;4324;-81
2022/07/19 00:24:53;;;;;;;885.80;830.50;;;;;;;21.12;57.24;100236.56;296919;33;4078;-79
2022/07/19 00:25:04;;;;;;;890.10;834.67;;;;;;;21.17;57.11;100239.75;297837;33;1026;-80
2022/07/19 00:25:15;;;;;;;892.67;837.33;;;;;;;21.19;56.94;100238.66;290165;33;3168;-81
2022/07/19 00:25:25;;;;;;;894.50;839.27;;;;;;;21.22;56.91;100240.28;293739;33;3094;-80
2022/07/19 00:25:35;;;;;;;886.25;831.33;;;;;;;21.27;56.65;100246.09;293874;33;4559;-79
2022/07/19 00:25:46;;;;;;;882.97;827.93;;;;;;;21.24;56.36;100241.84;293272;33;1183;-80
2022/07/19 00:25:56;;;;;;;879.58;824.60;;;;;;;21.25;56.68;100237.34;291455;33;5581;-80
2022/07/19 00:26:07;;;;;;;884.37;829.20;;;;;;;21.26;56.60;100241.72;288494;33;6161;-79
2022/07/19 00:26:17;;;;;;;888.73;833.50;;;;;;;21.28;56.57;100238.94;288522;34;1355;-79
2022/07/19 00:26:28;;;;;;;892.30;836.92;;;;;;;21.25;56.72;100235.53;289126;33;7771;-79
2022/07/19 00:26:38;;;;;;;894.42;838.97;;;;;;;21.21;56.89;100235.91;288420;33;6882;-80
2022/07/19 00:26:49;;;;;;;897.03;841.27;;;;;;;21.19;56.74;100232.50;287265;34;1213;-80
2022/07/19 00:26:59;;;;;;;897.95;842.15;;;;;;;21.19;57.16;100233.34;285215;34;6368;-80
2022/07/19 00:27:10;;;;;;;898.10;842.37;;;;;;;21.19;56.67;100237.81;287233;33;5858;-79
2022/07/19 00:27:20;;;;;;;892.80;837.30;;;;;;;21.20;56.90;100229.72;285645;34;4180;-79
2022/07/19 00:27:30;;;;;;;899.40;843.70;;;;;;;21.22;57.09;100233.16;283598;34;968;-79
2022/07/19 00:27:42;;;;;;;900.03;844.37;;;;;;;21.24;56.70;100236.50;281014;34;4764;-79
2022/07/19 00:27:52;;;;;;;902.45;846.60;;;;;;;21.27;56.40;100237.25;282090;34;6329;-79
2022/07/19 00:28:03;;;;;;;899.47;843.77;;;;;;;21.28;56.52;100236.28;283168;34;1371;-79
2022/07/19 00:28:13;;;;;;;893.20;837.70;;;;;;;21.31;56.55;100230.72;281767;34;9023;-79
2022/07/19 00:28:24;;;;;;;888.63;833.27;;;;;;;21.33;56.75;100240.31;279094;34;10165;-79
2022/07/19 00:28:35;;;;;;;891.33;835.95;;;;;;;21.37;56.35;100240.91;279570;35;1030;-80
2022/07/19 00:28:45;;;;;;;897.22;841.72;;;;;;;21.40;56.30;100230.88;272931;36;1219;-80
2022/07/19 00:30:27;;;;;;;840.24;787.14;;;;;;;21.28;56.76;100230.94;2496959;27;20377;-80
2022/07/19 00:30:37;;;;;;;921.40;865.70;;;;;;;21.20;56.71;100234.19;351337;28;1890;-80
2022/07/19 00:30:48;;;;;;;923.90;868.15;;;;;;;21.19;57.35;100237.81;349422;28;1309;-80
2022/07/19 00:30:58;;;;;;;931.70;875.53;;;;;;;21.19;56.98;100243.13;349806;28;947;-80
2022/07/19 00:31:09;;;;;;;932.42;876.13;;;;;;;21.16;57.32;100227.41;349017;28;868;-79
2022/07/19 00:31:19;;;;;;;936.43;879.90;;;;;;;21.15;57.06;100236.34;348728;28;807;-79
2022/07/19 00:31:30;;;;;;;937.53;880.85;;;;;;;21.14;57.55;100234.66;349127;28;1540;-79
2022/07/19 00:31:40;;;;;;;938.53;881.87;;;;;;;21.17;57.26;100234.41;349102;28;1269;-79
2022/07/19 00:31:50;;;;;;;938.83;882.10;;;;;;;21.20;57.20;100239.50;349879;28;1277;-79
2022/07/19 00:32:01;;;;;;;939.80;883.00;;;;;;;21.25;56.96;100237.34;347710;28;1250;-80
2022/07/19 00:32:11;;;;;;;948.05;891.05;;;;;;;21.25;56.76;100237.34;348399;28;1227;-80
2022/07/19 00:32:22;;;;;;;951.70;894.67;;;;;;;21.25;57.17;100238.22;349426;28;1142;-80
2022/07/19 00:32:32;;;;;;;950.57;893.60;;;;;;;21.24;57.30;100235.66;348147;28;1321;-80
2022/07/19 00:32:43;;;;;;;942.28;885.50;;;;;;;21.23;56.92;100240.13;346020;28;1214;-80
2022/07/19 00:32:53;;;;;;;939.53;882.90;;;;;;;21.20;57.22;100234.19;346254;28;1236;-80
2022/07/19 00:33:08;;;;;;;944.60;887.72;;;;;;;21.18;57.32;100239.63;347143;28;1246;-80
2022/07/19 00:33:18;;;;;;;951.22;894.30;;;;;;;21.20;57.20;100234.19;347354;28;1009;-79
2022/07/19 00:33:29;;;;;;;946.33;889.57;;;;;;;21.22;57.21;100232.28;346600;28;1216;-79
2022/07/19 00:33:39;;;;;;;942.05;885.55;;;;;;;21.21;57.27;100230.59;349215;28;1238;-79
2022/07/19 00:33:50;;;;;;;944.87;888.03;;;;;;;21.19;57.12;100240.47;346510;28;1304;-79
2022/07/19 00:34:00;;;;;;;947.00;890.05;;;;;;;21.17;57.04;100234.41;346060;28;1278;-79
2022/07/19 00:34:11;;;;;;;948.83;891.78;;;;;;;21.20;57.20;100235.03;346520;28;1443;-79
2022/07/19 00:34:21;;;;;;;942.33;885.30;;;;;;;21.25;57.49;100242.69;346520;28;1284;-80
2022/07/19 00:34:32;;;;;;;943.13;886.03;;;;;;;21.28;56.93;100239.78;346412;28;1361;-80
2022/07/19 00:34:42;;;;;;;938.85;881.97;;;;;;;21.30;57.10;100234.34;345678;28;1482;-80
2022/07/19 00:34:53;;;;;;;938.87;882.33;;;;;;;21.35;57.11;100238.38;346636;28;1291;-80
2022/07/19 00:35:03;;;;;;;941.42;884.78;;;;;;;21.37;56.90;100236.44;343798;28;1346;-80
2022/07/19 00:35:14;;;;;;;945.72;889.08;;;;;;;21.40;56.72;100230.03;343161;28;1311;-80
2022/07/19 00:35:26;;;;;;;952.47;895.50;;;;;;;21.39;56.74;100239.84;343853;28;1287;-80
2022/07/19 00:35:39;;;;;;;939.05;882.63;;;;;;;21.40;56.71;100236.22;345408;28;927;-80
2022/07/19 00:35:49;;;;;;;929.20;873.17;;;;;;;21.34;57.03;100233.16;345383;28;5100;-80
2022/07/19 00:36:00;;;;;;;928.92;872.85;;;;;;;21.32;56.88;100235.94;345361;28;1255;-80
2022/07/19 00:36:10;;;;;;;937.87;881.17;;;;;;;21.30;56.70;100235.19;346332;28;1217;-80
2022/07/19 00:36:21;;;;;;;942.88;886.00;;;;;;;21.30;56.96;100232.53;342435;28;1341;-80
2022/07/19 00:36:31;;;;;;;943.53;886.63;;;;;;;21.28;56.83;100237.13;346083;28;1431;-80
2022/07/19 00:36:42;;;;;;;940.53;884.00;;;;;;;21.29;56.94;100237.97;346648;28;1179;-80
2022/07/19 00:36:52;;;;;;;940.60;884.13;;;;;;;21.27;56.81;100235.44;342990;28;1305;-80
2022/07/19 00:37:03;;;;;;;932.70;876.58;;;;;;;21.23;57.34;100233.97;344728;28;1326;-79
2022/07/19 00:37:13;;;;;;;936.70;880.30;;;;;;;21.22;57.18;100237.63;344981;28;1201;-79
2022/07/19 00:37:23;;;;;;;935.00;878.72;;;;;;;21.23;57.35;100234.81;344697;28;1360;-79
2022/07/19 00:37:34;;;;;;;941.87;885.40;;;;;;;21.23;57.42;100237.47;347487;28;1211;-79
2022/07/19 00:37:44;;;;;;;933.58;877.47;;;;;;;21.24;57.31;100233.00;341324;28;1384;-79
2022/07/19 00:37:55;;;;;;;932.33;876.00;;;;;;;21.24;57.18;100230.34;345550;28;1172;-79
2022/07/19 00:38:06;;;;;;;929.47;873.13;;;;;;;21.30;57.21;100231.69;347625;28;1403;-79
2022/07/19 00:38:16;;;;;;;931.50;875.13;;;;;;;21.32;57.13;100235.94;345035;28;1440;-79
2022/07/19 00:38:27;;;;;;;928.10;872.03;;;;;;;21.34;56.75;100236.66;343293;28;985;-79
2022/07/19 00:38:37;;;;;;;934.17;877.88;;;;;;;21.37;57.11;100240.91;345868;28;1670;-79
2022/07/19 00:38:48;;;;;;;935.43;879.00;;;;;;;21.35;56.96;100232.19;344771;28;1377;-79
2022/07/19 00:38:58;;;;;;;936.40;879.90;;;;;;;21.29;56.57;100238.81;343231;28;1312;-79
2022/07/19 00:39:09;;;;;;;930.90;874.47;;;;;;;21.27;56.92;100231.91;344455;28;1469;-79
2022/07/19 00:39:19;;;;;;;926.30;870.13;;;;;;;21.21;56.98;100236.78;339281;29;1367;-79
2022/07/19 00:39:29;;;;;;;929.60;873.30;;;;;;;21.17;57.34;100239.75;338614;29;1269;-79
2022/07/19 00:39:40;;;;;;;931.30;874.93;;;;;;;21.20;57.23;100236.84;338494;29;967;-79
2022/07/19 00:39:51;;;;;;;931.46;875.10;;;;;;;21.21;57.48;100241.25;342532;28;1288;-80
2022/07/19 00:40:01;;;;;;;934.20;877.83;;;;;;;21.23;57.42;100236.63;344888;28;1594;-80
2022/07/19 00:40:12;;;;;;;934.78;878.25;;;;;;;21.23;57.31;100239.28;338031;29;1284;-79
2022/07/19 00:40:23;;;;;;;933.87;877.27;;;;;;;21.21;57.26;100235.91;342037;28;1483;-79
2022/07/19 00:40:33;;;;;;;928.10;871.63;;;;;;;21.20;57.49;100239.50;335348;29;2264;-79
2022/07/19 00:40:44;;;;;;;934.53;878.08;;;;;;;21.21;57.31;100235.91;330365;29;1213;-79
2022/07/19 00:40:54;;;;;;;937.87;881.33;;;;;;;21.21;57.21;100236.78;336411;29;2304;-79
2022/07/19 00:41:05;;;;;;;942.10;885.37;;;;;;;21.24;57.20;100238.31;334364;29;1890;-79
2022/07/19 00:41:15;;;;;;;937.60;880.97;;;;;;;21.27;57.20;100240.75;326933;30;1260;-79
2022/07/19 00:41:25;;;;;;;938.23;881.70;;;;;;;21.30;57.45;100240.53;328187;30;2650;-79
2022/07/19 00:41:40;;;;;;;934.90;878.60;;;;;;;21.35;56.90;100238.38;327914;29;1602;-79
2022/07/19 00:41:51;;;;;;;934.85;878.70;;;;;;;21.37;57.07;100236.44;328645;29;5558;-79
2022/07/19 00:42:01;;;;;;;935.60;879.37;;;;;;;21.40;57.04;100236.22;332247;29;1276;-79
2022/07/19 00:42:14;;;;;;;934.60;878.15;;;;;;;21.41;56.76;100232.59;333385;29;1410;-80
2022/07/19 00:42:25;;;;;;;932.30;875.80;;;;;;;21.47;56.90;100237.44;329899;29;1688;-80
2022/07/19 00:42:35;;;;;;;926.97;870.75;;;;;;;21.49;56.80;100240.84;327173;29;2163;-80
2022/07/19 00:42:46;;;;;;;924.07;868.07;;;;;;;21.50;56.44;100237.22;321219;30;1197;-80
2022/07/19 00:42:56;;;;;;;921.17;865.23;;;;;;;21.49;56.61;100240.84;324192;30;1399;-80
2022/07/19 00:43:07;;;;;;;924.42;868.53;;;;;;;21.46;56.28;100240.22;325716;30;2571;-80
2022/07/19 00:43:18;;;;;;;931.88;875.67;;;;;;;21.46;56.48;100235.75;321211;30;2383;-80
2022/07/19 00:43:28;;;;;;;937.25;880.78;;;;;;;21.46;56.55;100230.41;318230;31;1272;-80
2022/07/19 00:43:40;;;;;;;928.17;871.87;;;;;;;21.49;56.68;100232.00;319486;30;2518;-80
2022/07/19 00:43:51;;;;;;;923.65;867.65;;;;;;;21.51;56.14;100238.91;320710;30;1892;-80
2022/07/19 00:44:01;;;;;;;915.42;859.85;;;;;;;21.52;56.11;100234.44;320857;30;1322;-80
2022/07/19 00:44:12;;;;;;;925.67;869.73;;;;;;;21.54;56.09;100238.69;317053;31;1722;-80
2022/07/19 00:44:22;;;;;;;928.47;872.27;;;;;;;21.54;56.38;100233.34;313678;30;1932;-80
2022/07/19 00:44:33;;;;;;;938.27;881.70;;;;;;;21.57;56.39;100232.28;313165;31;2464;-80
2022/07/19 00:44:43;;;;;;;929.80;873.63;;;;;;;21.56;56.15;100236.75;310443;31;1225;-80
2022/07/19 00:44:54;;;;;;;927.20;871.07;;;;;;;21.50;56.43;100234.56;307750;31;3418;-80
2022/07/19 00:45:05;;;;;;;922.40;866.55;;;;;;;21.42;56.40;100241.41;308762;31;2945;-80
2022/07/19 00:45:16;;;;;;;924.38;868.42;;;;;;;21.36;56.36;100234.75;307081;32;1356;-80
2022/07/19 00:45:26;;;;;;;931.47;875.28;;;;;;;21.32;56.86;100238.59;300488;32;1429;-80
2022/07/19 00:45:37;;;;;;;931.30;875.03;;;;;;;21.28;56.72;100239.78;298338;32;3254;-79
2022/07/19 00:45:47;;;;;;;935.10;878.67;;;;;;;21.25;57.33;100238.22;293268;33;3390;-79
2022/07/19 00:45:58;;;;;;;930.47;874.23;;;;;;;21.27;56.98;100232.78;291199;34;1178;-79
2022/07/19 00:46:13;;;;;;;932.50;876.05;;;;;;;21.20;57.25;100242.19;289807;33;2719;-79
2022/07/19 00:46:23;;;;;;;932.03;875.45;;;;;;;21.14;57.20;100234.66;292555;33;1988;-79
2022/07/19 00:46:34;;;;;;;933.75;876.88;;;;;;;21.10;57.17;100234.03;290218;33;2933;-79
2022/07/19 00:46:44;;;;;;;937.17;880.13;;;;;;;21.05;57.56;100238.00;289247;34;935;-79
2022/07/19 00:46:55;;;;;;;934.60;877.80;;;;;;;21.05;57.58;100235.31;289226;33;3346;-79
2022/07/19 00:47:05;;;;;;;932.80;876.33;;;;;;;21.05;57.70;100240.66;290689;33;3837;-79
2022/07/19 00:47:16;;;;;;;932.45;875.97;;;;;;;21.01;57.37;100229.38;292954;33;936;-79
2022/07/19 00:47:26;;;;;;;941.90;885.03;;;;;;;21.00;57.56;100233.00;284808;34;3045;-79
2022/07/19 00:47:36;;;;;;;945.77;888.70;;;;;;;20.98;57.60;100240.25;282832;34;4574;-79
2022/07/19 00:47:47;;;;;;;952.22;895.00;;;;;;;20.97;57.68;100232.38;279998;34;4349;-79
2022/07/19 00:47:57;;;;;;;950.40;893.20;;;;;;;20.96;57.72;100233.34;283961;34;1359;-79
2022/07/19 00:48:08;;;;;;;941.22;884.42;;;;;;;20.92;57.79;100236.22;284821;34;5336;-79
2022/07/19 00:48:18;;;;;;;934.37;877.77;;;;;;;20.92;57.69;100240.69;284774;34;3690;-79
2022/07/19 00:48:29;;;;;;;929.58;873.20;;;;;;;20.91;57.63;100231.00;282621;35;1395;-79
2022/07/19 00:48:40;;;;;;;937.72;880.72;;;;;;;20.93;57.88;100234.41;282922;34;2976;-79
2022/07/19 00:48:51;;;;;;;940.20;882.97;;;;;;;20.95;57.61;100240.47;281397;34;4045;-79
2022/07/19 00:49:01;;;;;;;942.95;885.72;;;;;;;20.95;57.59;100231.63;279044;34;5419;-79
2022/07/19 00:49:12;;;;;;;947.10;889.93;;;;;;;20.94;57.60;100233.44;280201;35;1742;-79
2022/07/19 00:49:22;;;;;;;946.17;889.25;;;;;;;20.98;57.74;100231.41;277106;35;5600;-79
2022/07/19 00:49:33;;;;;;;941.17;884.50;;;;;;;21.00;57.86;100227.69;275735;35;6165;-79
2022/07/19 00:49:43;;;;;;;935.65;879.15;;;;;;;21.07;57.44;100238.72;275478;35;809;-79
2022/07/19 00:49:54;;;;;;;937.43;880.73;;;;;;;21.09;57.41;100235.00;270897;35;5714;-79
2022/07/19 00:50:04;;;;;;;939.15;882.55;;;;;;;21.13;57.25;100230.28;269465;36;5909;-79
2022/07/19 00:50:15;;;;;;;942.33;885.70;;;;;;;21.18;57.13;100234.31;270945;36;1323;-79
2022/07/19 00:50:25;;;;;;;947.03;890.15;;;;;;;21.19;56.98;100232.50;268714;36;6801;-79
2022/07/19 00:50:36;;;;;;;948.87;891.80;;;;;;;21.19;57.19;100240.47;269196;36;5595;-79
2022/07/19 00:50:46;;;;;;;943.58;886.78;;;;;;;21.16;56.98;100238.03;268281;36;5280;-79
2022/07/19 00:50:57;;;;;;;942.97;886.33;;;;;;;21.13;57.47;100230.28;270635;36;1404;-79
2022/07/19 00:51:08;;;;;;;939.10;882.58;;;;;;;21.07;57.40;100228.06;266892;36;6706;-79
2022/07/19 00:51:19;;;;;;;937.10;880.55;;;;;;;21.07;57.27;100234.25;264705;36;8919;-79
2022/07/19 00:51:30;;;;;;;935.78;879.10;;;;;;;21.09;57.62;100228.81;265643;37;1284;-79